»·PEaware :: BAW903 EDDF-EGLL

BAW903 :: EDDF-EGLL

FLIGHT INFORMATION

Flight Status: Arrived
Operator:
British Airways
More flights by this operator :: More flights under this callsign
Pilot: Bryan S. (13276)
Aircraft: BOEING 767-300
(B763)
More flights by this aircraft type
Origin: EDDF Frankfurt/Main
Germany
Destination: EGLL Heathrow
United Kingdom
More flights between these airports :: More routes between these airports
Route: EDDF BIBT4E BIBTI UZ29 TINIK UZ291 TORNU UZ29 NIK UL179 COA KONAN UL9 DVR BIG3C EGLL
File this flight plan on PilotEdge
Remarks:
Altitude:
(Current/Filed)
40,000ft
Speed:
(Current/Filed)
456kts
Departed: 02-Feb-17 09:22 PM
Arrived: 02-Feb-17 10:39 PM
Distance/Time
Traveled:
354nm/1:17
Distance/Time
To Go:
Arrived

Flight Plot

Page will automatically refresh every two minutes.

Flight plan parsing failed; only flown route is shown


Map Options




Map Legend


Flown Route
Filed Route
Departure Airport
Arrival Airport
Navaid (VOR, NDB)
Fix

Horizontal Profiles

Position Reports

Time Latitude Longitude Heading Altitude Ground
Speed
02-Feb-17 20:47 50.050439 8.586444 339 378ft 0kts
02-Feb-17 20:48 50.050439 8.586444 339 378ft 0kts
02-Feb-17 20:49 50.050439 8.586444 339 378ft 0kts
02-Feb-17 20:50 50.050439 8.586444 339 378ft 0kts
02-Feb-17 20:51 50.050439 8.586444 339 378ft 0kts
02-Feb-17 20:52 50.050439 8.586444 339 378ft 0kts
02-Feb-17 20:53 50.050430 8.586449 339 378ft 0kts
02-Feb-17 20:54 50.050302 8.586523 339 378ft 2kts
02-Feb-17 20:55 50.050055 8.586969 248 378ft 0kts
02-Feb-17 20:56 50.050055 8.586969 248 378ft 0kts
02-Feb-17 20:57 50.050055 8.586969 248 378ft 0kts
02-Feb-17 20:58 50.050055 8.586969 248 378ft 0kts
02-Feb-17 20:59 50.050055 8.586969 248 378ft 0kts
02-Feb-17 21:00 50.050055 8.586969 248 378ft 0kts
02-Feb-17 21:01 50.050055 8.586969 248 378ft 0kts
02-Feb-17 21:02 50.050055 8.586969 248 378ft 0kts
02-Feb-17 21:03 50.050055 8.586968 248 378ft 0kts
02-Feb-17 21:04 50.050051 8.586955 248 378ft 0kts
02-Feb-17 21:05 50.050048 8.586940 248 378ft 0kts
02-Feb-17 21:06 50.049457 8.585606 233 378ft 7kts
02-Feb-17 21:07 50.048611 8.582925 251 378ft 14kts
02-Feb-17 21:08 50.047628 8.579791 226 378ft 6kts
02-Feb-17 21:09 50.046694 8.577405 248 378ft 10kts
02-Feb-17 21:10 50.045766 8.573619 250 378ft 6kts
02-Feb-17 21:11 50.044823 8.569609 247 378ft 7kts
02-Feb-17 21:12 50.042852 8.568116 194 378ft 10kts
02-Feb-17 21:13 50.041578 8.564177 249 378ft 9kts
02-Feb-17 21:14 50.040158 8.558186 249 378ft 11kts
02-Feb-17 21:15 50.038887 8.552878 250 378ft 14kts
02-Feb-17 21:16 50.037509 8.547068 249 378ft 16kts
02-Feb-17 21:17 50.035935 8.540751 252 378ft 13kts
02-Feb-17 21:18 50.034936 8.536171 249 378ft 9kts
02-Feb-17 21:19 50.034133 8.533222 204 378ft 6kts
02-Feb-17 21:20 50.033013 8.534457 128 378ft 10kts
02-Feb-17 21:21 50.032866 8.535593 72 378ft 0kts
02-Feb-17 21:22 50.033846 8.539874 69 378ft 78kts
02-Feb-17 21:23 50.052744 8.616808 68 2184ft 231kts
02-Feb-17 21:24 50.108462 8.648353 357 3546ft 234kts
02-Feb-17 21:25 50.173177 8.637258 353 5202ft 240kts
02-Feb-17 21:26 50.242256 8.624403 358 7197ft 275kts
02-Feb-17 21:27 50.323513 8.608020 330 8852ft 310kts
02-Feb-17 21:28 50.357319 8.494809 277 10369ft 292kts
02-Feb-17 21:29 50.377930 8.371440 272 12395ft 291kts
02-Feb-17 21:30 50.360096 8.248714 247 14530ft 293kts
02-Feb-17 21:31 50.333517 8.125481 247 17464ft 310kts
02-Feb-17 21:32 50.307261 7.999701 246 18875ft 308kts
02-Feb-17 21:33 50.301156 7.862678 283 22159ft 352kts
02-Feb-17 21:34 50.347934 7.711704 290 23716ft 428kts
02-Feb-17 21:35 50.442382 7.600359 338 26478ft 482kts
02-Feb-17 21:36 50.570452 7.520391 328 28939ft 505kts
02-Feb-17 21:37 50.686515 7.398064 322 32088ft 498kts
02-Feb-17 21:38 50.802707 7.278864 323 34595ft 495kts
02-Feb-17 21:39 50.917491 7.160438 322 36901ft 484kts
02-Feb-17 21:40 50.993656 7.002380 277 38553ft 450kts
02-Feb-17 21:41 51.019157 6.808555 277 39644ft 455kts
02-Feb-17 21:42 51.052503 6.613342 279 39691ft 453kts
02-Feb-17 21:43 51.085835 6.419712 278 39681ft 453kts
02-Feb-17 21:44 51.118407 6.226044 278 39676ft 455kts
02-Feb-17 21:45 51.151609 6.032589 278 39681ft 453kts
02-Feb-17 21:46 51.182065 5.838094 274 39676ft 451kts
02-Feb-17 21:47 51.181682 5.642640 262 39679ft 440kts
02-Feb-17 21:48 51.180200 5.447246 263 39683ft 441kts
02-Feb-17 21:49 51.178975 5.251778 262 39677ft 442kts
02-Feb-17 21:50 51.176521 5.055276 262 39672ft 444kts
02-Feb-17 21:51 51.175440 4.859420 262 39671ft 442kts
02-Feb-17 21:52 51.172124 4.663332 262 39671ft 443kts
02-Feb-17 21:53 51.169084 4.467578 263 39670ft 442kts
02-Feb-17 21:54 51.166236 4.271859 262 39672ft 442kts
02-Feb-17 21:55 51.184784 4.077290 287 39654ft 462kts
02-Feb-17 21:56 51.232074 3.887413 282 39644ft 457kts
02-Feb-17 21:57 51.272960 3.695715 283 39644ft 457kts
02-Feb-17 21:58 51.315798 3.505033 284 39644ft 456kts
02-Feb-17 21:59 51.344016 3.312180 258 39639ft 437kts
02-Feb-17 22:00 51.313059 3.125059 249 38618ft 437kts
02-Feb-17 22:01 51.282477 2.939338 251 36329ft 428kts
02-Feb-17 22:02 51.253648 2.752522 247 34037ft 437kts
02-Feb-17 22:03 51.224044 2.567971 246 31788ft 423kts
02-Feb-17 22:04 51.195197 2.387833 246 29593ft 422kts
02-Feb-17 22:05 51.164898 2.203113 245 29331ft 433kts
02-Feb-17 22:06 51.133243 2.016650 248 28464ft 438kts
02-Feb-17 22:07 51.137533 1.816968 268 26694ft 460kts
02-Feb-17 22:08 51.150800 1.616785 267 24504ft 444kts
02-Feb-17 22:09 51.159854 1.419794 266 22289ft 449kts
02-Feb-17 22:10 51.125391 1.239010 236 20221ft 435kts
02-Feb-17 22:11 51.068217 1.079950 235 18810ft 386kts
02-Feb-17 22:12 51.020407 0.938248 236 17406ft 346kts
02-Feb-17 22:13 51.011040 0.787148 277 16006ft 370kts
02-Feb-17 22:14 51.038130 0.630779 278 14712ft 360kts
02-Feb-17 22:15 51.061604 0.480399 276 14209ft 349kts
02-Feb-17 22:16 51.118002 0.356946 312 12741ft 347kts
02-Feb-17 22:17 51.185309 0.260222 307 11212ft 310kts
02-Feb-17 22:18 51.245752 0.165256 307 10161ft 295kts
02-Feb-17 22:19 51.300670 0.080972 307 10005ft 262kts
02-Feb-17 22:20 51.358929 0.011979 346 10006ft 282kts
02-Feb-17 22:21 51.409984 0.090215 94 10004ft 277kts
02-Feb-17 22:22 51.382690 0.199295 132 9461ft 269kts
02-Feb-17 22:23 51.320986 0.246184 197 7596ft 255kts
02-Feb-17 22:24 51.292912 0.160149 281 7034ft 239kts
02-Feb-17 22:25 51.321388 0.066480 288 7014ft 233kts
02-Feb-17 22:26 51.341526 -0.025667 271 7005ft 199kts
02-Feb-17 22:27 51.348667 -0.106543 263 7004ft 176kts
02-Feb-17 22:28 51.346237 -0.183744 259 6949ft 169kts
02-Feb-17 22:29 51.375258 -0.239999 358 6607ft 226kts
02-Feb-17 22:30 51.404999 -0.161112 87 5635ft 223kts
02-Feb-17 22:31 51.446349 -0.105013 335 4624ft 212kts
02-Feb-17 22:32 51.490015 -0.159706 285 3650ft 193kts
02-Feb-17 22:33 51.484940 -0.243014 254 2764ft 189kts
02-Feb-17 22:34 51.478761 -0.329695 268 1457ft 201kts
02-Feb-17 22:35 51.478578 -0.293668 268 1287ft 157kts
02-Feb-17 22:36 51.478245 -0.327481 267 834ft 131kts
02-Feb-17 22:37 51.478434 -0.364444 266 683ft 124kts
02-Feb-17 22:38 51.477835 -0.410055 267 447ft 128kts
02-Feb-17 22:39 51.477619 -0.457666 269 94ft 32kts
02-Feb-17 22:40 51.476947 -0.467299 246 94ft 16kts
02-Feb-17 22:41 51.475795 -0.469704 268 94ft 0kts
02-Feb-17 22:42 51.475768 -0.473924 268 94ft 13kts
02-Feb-17 22:43 51.475104 -0.478881 211 94ft 8kts
02-Feb-17 22:44 51.474840 -0.482734 270 94ft 11kts
02-Feb-17 22:45 51.472925 -0.483651 195 94ft 7kts
02-Feb-17 22:46 51.471855 -0.485308 262 94ft 0kts
02-Feb-17 22:47 51.471834 -0.485786 270 94ft 0kts
02-Feb-17 22:48 51.471834 -0.485836 270 94ft 0kts
02-Feb-17 22:49 51.471834 -0.485836 270 94ft 0kts
02-Feb-17 22:50 51.471834 -0.485836 270 94ft 0kts
02-Feb-17 22:51 51.471834 -0.485836 270 94ft 0kts
02-Feb-17 22:52 51.471834 -0.485836 270 94ft 0kts

Navigation Log

Ident Type
Flight plan parsing failed, navigation log unavailable